Terminal Aerodrome Forecast
Issued by NWS

Home | Current Version | Previous Version | Text Only | Print | Product List | Glossary On
Versions: 1 2 3 4 5 6 7 8 9 10 11 12 13 14 15 16 17 18 19 20 21 22
000
FTUS44 KBMX 292341 CCA
TAFTCL
TAF COR
KTCL 292341Z 3000/3024 04016G24KT 2SM TSRA BKN025CB OVC080
      TEMPO 3000/3002 VRB15G25KT
     FM300300 05005KT P6SM SHRA VCTS BKN040CB OVC150
     FM300600 12006KT P6SM SCT080 OVC150
     FM301500 18009KT P6SM OVC070
     FM302000 19008KT P6SM VCSH BKN060 BKN200=

USA.gov is the U.S. government's official web portal to all federal, state and local government web resources and services.